sensor_id;sensor_type;location;lat;lon;timestamp;pressure;altitude;pressure_sealevel;temperature;humidity
61740;BME280;47645;45.288;12.038;2022-12-22T03:25:58;1018.0300179958458;;;6.9869140625;95.88231970528656
61740;BME280;47645;45.288;12.038;2022-12-22T03:34:54;1018.1509289817566;;;6.961328125;98.78923718856434
61740;BME280;47645;45.288;12.038;2022-12-22T03:54:54;1018.1429532808398;;;6.930859375;99.22250036050946
61740;BME280;47645;45.288;12.038;2022-12-22T04:04:54;1018.1097814379762;;;6.8951171875;98.94468258725063
61740;BME280;47645;45.288;12.038;2022-12-22T04:14:55;1018.1612726999545;;;6.941015625;98.62843080204007
61740;BME280;47645;45.288;12.038;2022-12-22T04:24:55;1018.0943038500309;;;6.9818359375;97.22155218595385
61740;BME280;47645;45.288;12.038;2022-12-22T04:34:56;1018.0078629410245;;;7.068359375;97.51607156686127
61740;BME280;47645;45.288;12.038;2022-12-22T04:44:56;1017.8327991767163;;;7.16015625;95.49545629875384
61740;BME280;47645;45.288;12.038;2022-12-22T04:54:57;1017.6754553150688;;;7.155078125;95.08728864860281
61740;BME280;47645;45.288;12.038;2022-12-22T05:04:57;1017.6492156628316;;;7.1041015625;96.10488114219858
61740;BME280;47645;45.288;12.038;2022-12-22T05:14:58;1017.8016433094069;;;7.1294921875;95.17635549700819
61740;BME280;47645;45.288;12.038;2022-12-22T05:24:58;1018.0448288475225;;;7.16015625;99.6225615977373
61740;BME280;47645;45.288;12.038;2022-12-22T05:34:58;1017.9261920216107;;;7.068359375;100
61740;BME280;47645;45.288;12.038;2022-12-22T05:44:59;1017.9332766636755;;;7.0939453125;100
61740;BME280;47645;45.288;12.038;2022-12-22T05:54:59;1017.9512779075325;;;6.971484375;97.60468430704798
61740;BME280;47645;45.288;12.038;2022-12-22T06:05:00;1017.939536853538;;;7.0734375;98.32969655426511
61740;BME280;47645;45.288;12.038;2022-12-22T06:15:00;1017.8560704568424;;;7.1908203125;99.25261450633225
61740;BME280;47645;45.288;12.038;2022-12-22T06:25:00;1017.9193745647023;;;7.0888671875;96.1651281251771
61740;BME280;47645;45.288;12.038;2022-12-22T06:35:01;1018.1990846099828;;;7.1908203125;96.74720094710179
61740;BME280;47645;45.288;12.038;2022-12-22T06:45:01;1018.0917009749847;;;7.2060546875;97.64817625572611
61740;BME280;47645;45.288;12.038;2022-12-22T06:55:02;1017.999705146926;;;7.175390625;97.40158741700033
61740;BME280;47645;45.288;12.038;2022-12-22T07:05:03;1018.097658574673;;;7.2365234375;98.01929384145396
61740;BME280;47645;45.288;12.038;2022-12-22T07:15:03;1017.8433191935778;;;7.27734375;97.39306208631831
61740;BME280;47645;45.288;12.038;2022-12-22T07:20:04;1017.8762548675935;;;7.3080078125;96.81254607887875
61740;BME280;47645;45.288;12.038;2022-12-22T07:35:05;1018.1142745177324;;;7.3435546875;96.17082187553775
61740;BME280;47645;45.288;12.038;2022-12-22T07:40:05;1018.2765708243527;;;7.3640625;95.41584270972807
61740;BME280;47645;45.288;12.038;2022-12-22T07:50:37;1018.1025775620178;;;7.399609375;95.19104130646232
61740;BME280;47645;45.288;12.038;2022-12-22T08:00:06;1018.2710826446075;;;7.4302734375;95.30887409804748
61740;BME280;47645;45.288;12.038;2022-12-22T08:10:07;1018.238378237434;;;7.603515625;95.31205898536015
61740;BME280;47645;45.288;12.038;2022-12-22T08:20:07;1018.2865524900872;;;7.623828125;96.53291067342546
61740;BME280;47645;45.288;12.038;2022-12-22T08:30:08;1018.2709997809783;;;7.7615234375;95.15749885350561
61740;BME280;47645;45.288;12.038;2022-12-22T08:40:12;1018.370636732474;;;7.837890625;94.73886174603952
61740;BME280;47645;45.288;12.038;2022-12-22T08:50:08;1018.4541994665515;;;7.9755859375;94.53868585029336
61740;BME280;47645;45.288;12.038;2022-12-22T09:00:10;1018.3890364670978;;;8.041796875;93.55320755931187
61740;BME280;47645;45.288;12.038;2022-12-22T09:10:09;1018.2618780590836;;;8.225390625;93.14002986764947
61740;BME280;47645;45.288;12.038;2022-12-22T09:20:09;1018.2201300485009;;;8.459765625;92.56629390435512
61740;BME280;47645;45.288;12.038;2022-12-22T09:30:10;1018.0560151541646;;;8.597265625;90.06890073612429
61740;BME280;47645;45.288;12.038;2022-12-22T09:40:11;1017.9880836856705;;;8.760546875;91.10189507164321
61740;BME280;47645;45.288;12.038;2022-12-22T09:50:15;1017.9502178387977;;;8.9236328125;88.98445102958985
61740;BME280;47645;45.288;12.038;2022-12-22T10:00:14;1017.8764257740534;;;9.2498046875;88.52019934498877
61740;BME280;47645;45.288;12.038;2022-12-22T10:10:21;1017.8318493006403;;;9.4689453125;87.1924774658908
61740;BME280;47645;45.288;12.038;2022-12-22T10:20:21;1017.6277586374277;;;9.6779296875;85.45383800899637
61740;BME280;47645;45.288;12.038;2022-12-22T10:30:22;1017.511663811759;;;9.5912109375;84.94198303154951
61740;BME280;47645;45.288;12.038;2022-12-22T10:40:15;1017.4555081031041;;;9.7185546875;84.34693412757561
61740;BME280;47645;45.288;12.038;2022-12-22T10:50:13;1017.2999479441839;;;9.881640625;83.69485425101793
61740;BME280;47645;45.288;12.038;2022-12-22T11:00:25;1017.3189618631357;;;9.9427734375;82.52231707431912
61740;BME280;47645;45.288;12.038;2022-12-22T11:10:19;1017.3978707923976;;;10.0447265625;81.19698527325085
61740;BME280;47645;45.288;12.038;2022-12-22T11:20:28;1017.2713347609213;;;10.1416015625;80.72502319632035
61740;BME280;47645;45.288;12.038;2022-12-22T11:30:19;1017.2259087638333;;;10.386328125;80.39411313476782
61740;BME280;47645;45.288;12.038;2022-12-22T11:40:23;1017.3731321857108;;;10.4373046875;79.90545267893195
61740;BME280;47645;45.288;12.038;2022-12-22T11:50:28;1017.4689592727996;;;10.0294921875;80.45363898469805
61740;BME280;47645;45.288;12.038;2022-12-22T12:00:17;1017.1541942207587;;;10.162109375;79.70718482687575
61740;BME280;47645;45.288;12.038;2022-12-22T12:10:22;1017.0948897547096;;;10.396484375;80.034656793106
61740;BME280;47645;45.288;12.038;2022-12-22T12:20:26;1017.0320108258092;;;10.717578125;77.77773811698019
61740;BME280;47645;45.288;12.038;2022-12-22T12:30:19;1016.7461167992664;;;10.8654296875;76.42466416074943
61740;BME280;47645;45.288;12.038;2022-12-22T12:40:28;1016.5422252456981;;;10.8755859375;76.7585700306997
61740;BME280;47645;45.288;12.038;2022-12-22T12:50:31;1016.2661948710822;;;11.05390625;74.79496741209707
61740;BME280;47645;45.288;12.038;2022-12-22T13:00:52;1016.2886436751687;;;10.921484375;76.0533586619911
61740;BME280;47645;45.288;12.038;2022-12-22T13:10:24;1016.228226279074;;;10.6919921875;76.73767327728581
61740;BME280;47645;45.288;12.038;2022-12-22T13:20:26;1016.2718290291516;;;10.60546875;77.16875320355625
61740;BME280;47645;45.288;12.038;2022-12-22T13:30:22;1016.1531947970813;;;10.4373046875;77.93027857800183
61740;BME280;47645;45.288;12.038;2022-12-22T13:40:24;1016.1143728543399;;;10.3046875;78.01756383547084
61740;BME280;47645;45.288;12.038;2022-12-22T13:50:26;1016.2086120735578;;;10.2384765625;77.34576598367867
61740;BME280;47645;45.288;12.038;2022-12-22T14:00:25;1016.1819791493228;;;10.19765625;79.89860241714113
61740;BME280;47645;45.288;12.038;2022-12-22T14:10:27;1016.0272296200746;;;10.1517578125;80.22871564793635
61740;BME280;47645;45.288;12.038;2022-12-22T14:20:26;1016.2013824318101;;;10.1466796875;79.77827467048134
61740;BME280;47645;45.288;12.038;2022-12-22T14:30:28;1016.0668553525134;;;9.9326171875;82.13271699003265
61740;BME280;47645;45.288;12.038;2022-12-22T14:40:29;1016.1932325111123;;;9.759375;84.0139013434175
61740;BME280;47645;45.288;12.038;2022-12-22T14:50:28;1016.1424114029478;;;9.565625;85.95550652395707
61740;BME280;47645;45.288;12.038;2022-12-22T15:00:32;1016.1687595865649;;;9.5912109375;86.72632146448613
61740;BME280;47645;45.288;12.038;2022-12-22T15:10:41;1016.4052030968237;;;9.428125;86.87427578102637
61740;BME280;47645;45.288;12.038;2022-12-22T15:20:28;1016.5933822662214;;;9.428125;87.71296492993781
61740;BME280;47645;45.288;12.038;2022-12-22T15:30:29;1016.5470503928367;;;9.3109375;88.39490582158456
61740;BME280;47645;45.288;12.038;2022-12-22T15:40:29;1016.5548329932931;;;9.1833984375;89.74239580338711
61740;BME280;47645;45.288;12.038;2022-12-22T15:50:33;1016.6215788740265;;;9.1427734375;89.75406879958376
61740;BME280;47645;45.288;12.038;2022-12-22T16:00:30;1016.5775335738426;;;9.0814453125;89.96789327589825
61740;BME280;47645;45.288;12.038;2022-12-22T16:10:33;1016.4806488123234;;;9.112109375;90.52220886843159
61740;BME280;47645;45.288;12.038;2022-12-22T16:20:36;1016.4492693474743;;;9.10703125;91.18234248713894
61740;BME280;47645;45.288;12.038;2022-12-22T16:30:33;1016.4373881404972;;;8.994921875;92.9525176009571
61740;BME280;47645;45.288;12.038;2022-12-22T16:40:40;1016.4414554272101;;;8.8673828125;93.78593924617977
61740;BME280;47645;45.288;12.038;2022-12-22T16:50:33;1016.3805186967754;;;9.0306640625;95.63360039105076
61740;BME280;47645;45.288;12.038;2022-12-22T17:00:35;1016.356673102789;;;8.8828125;96.98816986027555
61740;BME280;47645;45.288;12.038;2022-12-22T17:10:34;1016.393413923249;;;8.908203125;96.44721627152722
61740;BME280;47645;45.288;12.038;2022-12-22T17:20:35;1016.3201746593107;;;8.791015625;93.48511031430537
61740;BME280;47645;45.288;12.038;2022-12-22T17:30:35;1016.2058433927372;;;8.8470703125;94.26009939149729
61740;BME280;47645;45.288;12.038;2022-12-22T17:40:36;1016.1440421104567;;;8.77578125;94.56507328954116
61740;BME280;47645;45.288;12.038;2022-12-22T17:50:37;1016.0551989776607;;;8.7146484375;93.50021231741992
61740;BME280;47645;45.288;12.038;2022-12-22T18:00:37;1016.2428043014572;;;8.6279296875;95.96558905302743
61740;BME280;47645;45.288;12.038;2022-12-22T18:10:39;1016.3243049567111;;;8.4189453125;97.12276552002585
61740;BME280;47645;45.288;12.038;2022-12-22T18:20:38;1016.4281525978049;;;8.225390625;97.37075919950536
61740;BME280;47645;45.288;12.038;2022-12-22T18:30:38;1016.4949219985456;;;8.051953125;97.8634094988419
61740;BME280;47645;45.288;12.038;2022-12-22T18:40:39;1016.5997693839627;;;7.8787109375;97.76331929033266
61740;BME280;47645;45.288;12.038;2022-12-22T18:50:39;1016.556253076573;;;7.924609375;96.47841038639089
61740;BME280;47645;45.288;12.038;2022-12-22T19:00:40;1016.5843474889174;;;7.9501953125;98.76371896501183
61740;BME280;47645;45.288;12.038;2022-12-22T19:10:43;1016.5966398892612;;;7.70546875;99.68966154354017
61740;BME280;47645;45.288;12.038;2022-12-22T19:20:41;1016.482919935663;;;7.48125;100
61740;BME280;47645;45.288;12.038;2022-12-22T19:30:41;1016.5736804329965;;;7.5525390625;98.46264399184247
61740;BME280;47645;45.288;12.038;2022-12-22T19:40:41;1016.4188451126585;;;7.4556640625;99.70795423536795
61740;BME280;47645;45.288;12.038;2022-12-22T19:50:42;1016.452787879653;;;7.5015625;97.19454661962178
61740;BME280;47645;45.288;12.038;2022-12-22T20:00:43;1016.5328407139452;;;7.613671875;95.90984859963511
61740;BME280;47645;45.288;12.038;2022-12-22T20:10:44;1016.372252449005;;;7.6392578125;95.15157961643911
61740;BME280;47645;45.288;12.038;2022-12-22T20:20:45;1016.5656150729;;;7.6595703125;95.50053458657945
61740;BME280;47645;45.288;12.038;2022-12-22T20:30:45;1016.6145819669057;;;7.6341796875;96.23680989463483
61740;BME280;47645;45.288;12.038;2022-12-22T20:40:46;1016.5464402835054;;;7.593359375;97.78123036946442
61740;BME280;47645;45.288;12.038;2022-12-22T20:50:45;1016.5742653805324;;;7.583203125;97.9401575146608
61740;BME280;47645;45.288;12.038;2022-12-22T21:00:45;1016.7482391841118;;;7.6544921875;96.579563125244
61740;BME280;47645;45.288;12.038;2022-12-22T21:10:46;1016.7282589323972;;;7.700390625;95.9119006668628
61740;BME280;47645;45.288;12.038;2022-12-22T21:20:47;1016.7317376069076;;;7.837890625;96.0874343469948
61740;BME280;47645;45.288;12.038;2022-12-22T21:30:47;1016.7210062246079;;;7.8685546875;96.41252795637007
61740;BME280;47645;45.288;12.038;2022-12-22T21:40:48;1016.7276925168528;;;7.8125;96.02571774949709
61740;BME280;47645;45.288;12.038;2022-12-22T21:50:49;1016.6731787871005;;;7.817578125;95.52642783470931
61740;BME280;47645;45.288;12.038;2022-12-22T22:00:48;1016.7186940933533;;;7.8533203125;95.37751477768047
61740;BME280;47645;45.288;12.038;2022-12-22T22:10:48;1016.8285749633884;;;7.8533203125;95.36586359764495
61740;BME280;47645;45.288;12.038;2022-12-22T22:20:50;1016.6415616002289;;;7.80234375;95.06962128690552
61740;BME280;47645;45.288;12.038;2022-12-22T22:30:49;1016.4789159181413;;;7.82265625;95.2314583403534
61740;BME280;47645;45.288;12.038;2022-12-22T22:40:49;1016.3171066203369;;;7.82265625;95.59979453730709
61740;BME280;47645;45.288;12.038;2022-12-22T22:50:50;1016.3026024571252;;;7.82265625;97.0487901440729
61740;BME280;47645;45.288;12.038;2022-12-22T23:00:50;1016.3528083405731;;;7.7767578125;97.12886179602691
61740;BME280;47645;45.288;12.038;2022-12-22T23:10:51;1016.5534338784232;;;7.68515625;99.75028987070478
61740;BME280;47645;45.288;12.038;2022-12-22T23:20:51;1016.4998058344106;;;7.7361328125;97.65441772540866
61740;BME280;47645;45.288;12.038;2022-12-22T23:30:52;1015.9211329922794;;;7.7361328125;97.97857800051777
61740;BME280;47645;45.288;12.038;2022-12-22T23:41:00;1015.9894748559235;;;7.9705078125;97.5250887305998
61740;BME280;47645;45.288;12.038;2022-12-22T23:50:53;1016.1255729954338;;;7.6748046875;99.22981241068125
